sensor_id;sensor_type;location;lat;lon;timestamp;P1;durP1;ratioP1;P2;durP2;ratioP2
1010;SDS011;494;48.744;10.106;2024-03-08T00:02:17;883.35;;;794.53;;
1010;SDS011;494;48.744;10.106;2024-03-08T00:04:46;874.50;;;786.20;;
1010;SDS011;494;48.744;10.106;2024-03-08T00:07:16;903.38;;;811.58;;
1010;SDS011;494;48.744;10.106;2024-03-08T00:09:46;851.40;;;765.70;;
1010;SDS011;494;48.744;10.106;2024-03-08T00:12:14;870.00;;;782.38;;
1010;SDS011;494;48.744;10.106;2024-03-08T00:14:43;854.85;;;768.33;;
1010;SDS011;494;48.744;10.106;2024-03-08T00:17:12;839.22;;;756.08;;
1010;SDS011;494;48.744;10.106;2024-03-08T00:19:43;896.63;;;806.13;;
1010;SDS011;494;48.744;10.106;2024-03-08T00:22:14;888.65;;;798.08;;
1010;SDS011;494;48.744;10.106;2024-03-08T00:24:44;893.85;;;802.72;;
1010;SDS011;494;48.744;10.106;2024-03-08T00:27:13;930.33;;;834.00;;
1010;SDS011;494;48.744;10.106;2024-03-08T00:29:42;880.92;;;790.13;;
1010;SDS011;494;48.744;10.106;2024-03-08T00:32:11;870.47;;;781.00;;
1010;SDS011;494;48.744;10.106;2024-03-08T00:34:41;909.00;;;815.30;;
1010;SDS011;494;48.744;10.106;2024-03-08T00:37:10;883.22;;;792.35;;
1010;SDS011;494;48.744;10.106;2024-03-08T00:39:46;893.20;;;801.55;;
1010;SDS011;494;48.744;10.106;2024-03-08T00:42:17;895.75;;;802.40;;
1010;SDS011;494;48.744;10.106;2024-03-08T00:44:47;928.15;;;831.55;;
1010;SDS011;494;48.744;10.106;2024-03-08T00:47:18;927.05;;;830.38;;
1010;SDS011;494;48.744;10.106;2024-03-08T00:49:49;971.30;;;869.30;;
1010;SDS011;494;48.744;10.106;2024-03-08T00:52:19;908.75;;;813.50;;
1010;SDS011;494;48.744;10.106;2024-03-08T00:54:48;937.72;;;840.80;;
1010;SDS011;494;48.744;10.106;2024-03-08T00:57:18;920.55;;;825.38;;
1010;SDS011;494;48.744;10.106;2024-03-08T00:59:49;925.25;;;827.50;;
1010;SDS011;494;48.744;10.106;2024-03-08T01:02:19;901.83;;;808.28;;
1010;SDS011;494;48.744;10.106;2024-03-08T01:04:49;916.38;;;821.65;;
1010;SDS011;494;48.744;10.106;2024-03-08T01:07:28;852.78;;;764.95;;
1010;SDS011;494;48.744;10.106;2024-03-08T01:09:57;904.10;;;810.60;;
1010;SDS011;494;48.744;10.106;2024-03-08T01:12:27;859.03;;;766.92;;
1010;SDS011;494;48.744;10.106;2024-03-08T01:14:58;929.72;;;831.92;;
1010;SDS011;494;48.744;10.106;2024-03-08T01:17:28;908.47;;;813.85;;
1010;SDS011;494;48.744;10.106;2024-03-08T01:19:57;915.22;;;819.50;;
1010;SDS011;494;48.744;10.106;2024-03-08T01:22:30;885.70;;;793.72;;
1010;SDS011;494;48.744;10.106;2024-03-08T01:24:59;924.80;;;827.70;;
1010;SDS011;494;48.744;10.106;2024-03-08T01:27:28;909.25;;;813.95;;
1010;SDS011;494;48.744;10.106;2024-03-08T01:29:57;903.30;;;809.17;;
1010;SDS011;494;48.744;10.106;2024-03-08T01:32:26;863.45;;;777.75;;
1010;SDS011;494;48.744;10.106;2024-03-08T01:34:55;905.90;;;812.60;;
1010;SDS011;494;48.744;10.106;2024-03-08T01:37:23;935.83;;;838.60;;
1010;SDS011;494;48.744;10.106;2024-03-08T01:39:54;917.85;;;824.28;;
1010;SDS011;494;48.744;10.106;2024-03-08T01:42:27;942.30;;;845.70;;
1010;SDS011;494;48.744;10.106;2024-03-08T01:44:56;913.67;;;819.13;;
1010;SDS011;494;48.744;10.106;2024-03-08T01:47:25;906.13;;;811.90;;
1010;SDS011;494;48.744;10.106;2024-03-08T01:49:54;918.13;;;823.50;;
1010;SDS011;494;48.744;10.106;2024-03-08T01:52:27;945.75;;;848.63;;
1010;SDS011;494;48.744;10.106;2024-03-08T01:54:59;942.50;;;844.92;;
1010;SDS011;494;48.744;10.106;2024-03-08T01:57:33;942.95;;;846.50;;
1010;SDS011;494;48.744;10.106;2024-03-08T02:00:05;931.08;;;836.00;;
1010;SDS011;494;48.744;10.106;2024-03-08T02:02:37;951.77;;;853.37;;
1010;SDS011;494;48.744;10.106;2024-03-08T02:05:09;908.90;;;815.63;;
1010;SDS011;494;48.744;10.106;2024-03-08T02:07:42;942.58;;;845.72;;
1010;SDS011;494;48.744;10.106;2024-03-08T02:10:13;898.15;;;805.40;;
1010;SDS011;494;48.744;10.106;2024-03-08T02:12:43;938.40;;;842.72;;
1010;SDS011;494;48.744;10.106;2024-03-08T02:15:14;912.10;;;819.03;;
1010;SDS011;494;48.744;10.106;2024-03-08T02:17:43;932.17;;;835.45;;
1010;SDS011;494;48.744;10.106;2024-03-08T02:23:28;922.50;;;828.43;;
1010;SDS011;494;48.744;10.106;2024-03-08T02:26:04;920.60;;;827.63;;
1010;SDS011;494;48.744;10.106;2024-03-08T02:28:34;948.75;;;849.85;;
1010;SDS011;494;48.744;10.106;2024-03-08T02:31:06;956.85;;;859.50;;
1010;SDS011;494;48.744;10.106;2024-03-08T02:33:35;921.85;;;826.58;;
1010;SDS011;494;48.744;10.106;2024-03-08T02:36:07;967.15;;;867.30;;
1010;SDS011;494;48.744;10.106;2024-03-08T02:38:38;954.88;;;856.00;;
1010;SDS011;494;48.744;10.106;2024-03-08T02:41:11;952.17;;;854.58;;
1010;SDS011;494;48.744;10.106;2024-03-08T02:43:47;928.80;;;834.45;;
1010;SDS011;494;48.744;10.106;2024-03-08T02:46:17;909.55;;;815.80;;
1010;SDS011;494;48.744;10.106;2024-03-08T02:48:47;935.25;;;838.80;;
1010;SDS011;494;48.744;10.106;2024-03-08T02:51:33;938.88;;;844.45;;
1010;SDS011;494;48.744;10.106;2024-03-08T02:54:04;934.58;;;840.42;;
1010;SDS011;494;48.744;10.106;2024-03-08T02:56:35;954.55;;;856.67;;
1010;SDS011;494;48.744;10.106;2024-03-08T02:59:31;941.42;;;848.00;;
1010;SDS011;494;48.744;10.106;2024-03-08T03:02:00;913.42;;;820.60;;
1010;SDS011;494;48.744;10.106;2024-03-08T03:04:29;949.78;;;851.47;;
1010;SDS011;494;48.744;10.106;2024-03-08T03:06:57;961.70;;;862.70;;
1010;SDS011;494;48.744;10.106;2024-03-08T03:09:28;954.58;;;857.22;;
1010;SDS011;494;48.744;10.106;2024-03-08T03:11:59;948.67;;;852.78;;
1010;SDS011;494;48.744;10.106;2024-03-08T03:14:29;941.40;;;845.95;;
1010;SDS011;494;48.744;10.106;2024-03-08T03:16:57;933.67;;;840.42;;
1010;SDS011;494;48.744;10.106;2024-03-08T03:19:26;963.88;;;866.03;;
1010;SDS011;494;48.744;10.106;2024-03-08T03:21:56;938.60;;;844.13;;
1010;SDS011;494;48.744;10.106;2024-03-08T03:24:25;945.85;;;849.67;;
1010;SDS011;494;48.744;10.106;2024-03-08T03:26:56;945.95;;;850.03;;
1010;SDS011;494;48.744;10.106;2024-03-08T03:29:26;890.78;;;800.80;;
1010;SDS011;494;48.744;10.106;2024-03-08T03:31:54;953.22;;;856.83;;
1010;SDS011;494;48.744;10.106;2024-03-08T03:34:23;915.50;;;823.23;;
1010;SDS011;494;48.744;10.106;2024-03-08T03:36:52;936.15;;;841.63;;
1010;SDS011;494;48.744;10.106;2024-03-08T03:39:22;945.97;;;850.30;;
1010;SDS011;494;48.744;10.106;2024-03-08T03:42:02;924.08;;;832.17;;
1010;SDS011;494;48.744;10.106;2024-03-08T03:44:31;947.63;;;851.90;;
1010;SDS011;494;48.744;10.106;2024-03-08T03:47:00;956.60;;;860.40;;
1010;SDS011;494;48.744;10.106;2024-03-08T03:49:29;932.90;;;838.60;;
1010;SDS011;494;48.744;10.106;2024-03-08T03:51:57;976.92;;;875.78;;
1010;SDS011;494;48.744;10.106;2024-03-08T03:54:26;896.43;;;807.00;;
1010;SDS011;494;48.744;10.106;2024-03-08T03:56:56;923.47;;;831.80;;
1010;SDS011;494;48.744;10.106;2024-03-08T03:59:27;896.40;;;801.05;;
1010;SDS011;494;48.744;10.106;2024-03-08T04:01:55;942.95;;;847.70;;
1010;SDS011;494;48.744;10.106;2024-03-08T04:04:25;957.17;;;859.63;;
1010;SDS011;494;48.744;10.106;2024-03-08T04:06:54;912.38;;;820.83;;
1010;SDS011;494;48.744;10.106;2024-03-08T04:09:22;927.57;;;833.07;;
1010;SDS011;494;48.744;10.106;2024-03-08T04:11:51;890.60;;;799.90;;
1010;SDS011;494;48.744;10.106;2024-03-08T04:14:22;924.58;;;830.22;;
1010;SDS011;494;48.744;10.106;2024-03-08T04:16:52;947.88;;;851.75;;
1010;SDS011;494;48.744;10.106;2024-03-08T04:19:21;966.35;;;865.92;;
1010;SDS011;494;48.744;10.106;2024-03-08T04:21:51;947.45;;;851.33;;
1010;SDS011;494;48.744;10.106;2024-03-08T04:24:19;909.50;;;818.47;;
1010;SDS011;494;48.744;10.106;2024-03-08T04:26:50;953.97;;;855.30;;
1010;SDS011;494;48.744;10.106;2024-03-08T04:29:19;892.72;;;802.42;;
1010;SDS011;494;48.744;10.106;2024-03-08T04:31:48;909.13;;;817.38;;
1010;SDS011;494;48.744;10.106;2024-03-08T04:34:22;898.00;;;807.28;;
1010;SDS011;494;48.744;10.106;2024-03-08T04:36:50;889.20;;;800.15;;
1010;SDS011;494;48.744;10.106;2024-03-08T04:39:21;931.33;;;835.72;;
1010;SDS011;494;48.744;10.106;2024-03-08T04:41:53;938.75;;;842.03;;
1010;SDS011;494;48.744;10.106;2024-03-08T04:44:32;901.10;;;811.45;;
1010;SDS011;494;48.744;10.106;2024-03-08T04:47:01;925.95;;;831.83;;
1010;SDS011;494;48.744;10.106;2024-03-08T04:49:31;912.92;;;820.47;;
1010;SDS011;494;48.744;10.106;2024-03-08T04:52:01;919.03;;;825.28;;
1010;SDS011;494;48.744;10.106;2024-03-08T04:54:30;873.05;;;783.05;;
1010;SDS011;494;48.744;10.106;2024-03-08T04:56:59;868.17;;;777.90;;
1010;SDS011;494;48.744;10.106;2024-03-08T04:59:33;899.22;;;809.60;;
1010;SDS011;494;48.744;10.106;2024-03-08T05:02:03;918.42;;;825.13;;
1010;SDS011;494;48.744;10.106;2024-03-08T05:04:35;890.78;;;799.83;;
1010;SDS011;494;48.744;10.106;2024-03-08T05:07:03;899.80;;;808.53;;
1010;SDS011;494;48.744;10.106;2024-03-08T05:09:32;859.20;;;771.72;;
1010;SDS011;494;48.744;10.106;2024-03-08T05:12:03;923.72;;;827.95;;
1010;SDS011;494;48.744;10.106;2024-03-08T05:14:32;925.10;;;829.90;;
1010;SDS011;494;48.744;10.106;2024-03-08T05:17:01;891.90;;;802.93;;
1010;SDS011;494;48.744;10.106;2024-03-08T05:19:35;893.47;;;804.33;;
1010;SDS011;494;48.744;10.106;2024-03-08T05:22:04;886.58;;;796.25;;
1010;SDS011;494;48.744;10.106;2024-03-08T05:24:33;880.67;;;791.55;;
1010;SDS011;494;48.744;10.106;2024-03-08T05:27:02;904.30;;;814.03;;
1010;SDS011;494;48.744;10.106;2024-03-08T05:29:31;854.53;;;765.03;;
1010;SDS011;494;48.744;10.106;2024-03-08T05:32:00;895.15;;;804.67;;
1010;SDS011;494;48.744;10.106;2024-03-08T05:34:29;852.97;;;767.22;;
1010;SDS011;494;48.744;10.106;2024-03-08T05:36:59;875.95;;;788.38;;
1010;SDS011;494;48.744;10.106;2024-03-08T05:39:28;860.20;;;774.97;;
1010;SDS011;494;48.744;10.106;2024-03-08T05:41:57;879.33;;;793.05;;
1010;SDS011;494;48.744;10.106;2024-03-08T05:44:28;854.25;;;771.55;;
1010;SDS011;494;48.744;10.106;2024-03-08T05:46:59;879.60;;;791.28;;
1010;SDS011;494;48.744;10.106;2024-03-08T05:49:31;862.13;;;778.20;;
1010;SDS011;494;48.744;10.106;2024-03-08T05:52:02;861.30;;;774.90;;
1010;SDS011;494;48.744;10.106;2024-03-08T05:54:31;864.10;;;779.80;;
1010;SDS011;494;48.744;10.106;2024-03-08T05:56:59;916.15;;;826.22;;
1010;SDS011;494;48.744;10.106;2024-03-08T05:59:33;845.47;;;763.50;;
1010;SDS011;494;48.744;10.106;2024-03-08T06:02:04;915.72;;;823.13;;
1010;SDS011;494;48.744;10.106;2024-03-08T06:04:34;901.17;;;811.38;;
1010;SDS011;494;48.744;10.106;2024-03-08T06:07:04;866.00;;;780.22;;
1010;SDS011;494;48.744;10.106;2024-03-08T06:09:33;914.75;;;820.28;;
1010;SDS011;494;48.744;10.106;2024-03-08T06:12:02;851.75;;;765.67;;
1010;SDS011;494;48.744;10.106;2024-03-08T06:14:33;838.50;;;754.15;;
1010;SDS011;494;48.744;10.106;2024-03-08T06:17:01;1024.93;;;851.58;;
1010;SDS011;494;48.744;10.106;2024-03-08T06:19:32;846.97;;;763.70;;
1010;SDS011;494;48.744;10.106;2024-03-08T06:22:04;888.80;;;800.25;;
1010;SDS011;494;48.744;10.106;2024-03-08T06:24:33;879.00;;;792.30;;
1010;SDS011;494;48.744;10.106;2024-03-08T06:27:03;853.05;;;768.40;;
1010;SDS011;494;48.744;10.106;2024-03-08T06:29:32;856.20;;;772.35;;
1010;SDS011;494;48.744;10.106;2024-03-08T06:32:01;828.88;;;746.22;;
1010;SDS011;494;48.744;10.106;2024-03-08T06:34:32;864.25;;;780.35;;
1010;SDS011;494;48.744;10.106;2024-03-08T06:37:02;889.33;;;801.67;;
1010;SDS011;494;48.744;10.106;2024-03-08T06:39:32;859.25;;;775.22;;
1010;SDS011;494;48.744;10.106;2024-03-08T06:42:02;835.97;;;755.05;;
1010;SDS011;494;48.744;10.106;2024-03-08T06:44:31;861.17;;;777.55;;
1010;SDS011;494;48.744;10.106;2024-03-08T06:47:01;895.03;;;806.70;;
1010;SDS011;494;48.744;10.106;2024-03-08T06:49:30;938.63;;;842.60;;
1010;SDS011;494;48.744;10.106;2024-03-08T06:51:58;852.05;;;770.20;;
1010;SDS011;494;48.744;10.106;2024-03-08T06:54:28;841.42;;;759.97;;
1010;SDS011;494;48.744;10.106;2024-03-08T06:56:57;846.90;;;763.33;;
1010;SDS011;494;48.744;10.106;2024-03-08T06:59:27;879.22;;;792.85;;
1010;SDS011;494;48.744;10.106;2024-03-08T07:01:55;842.55;;;759.70;;
1010;SDS011;494;48.744;10.106;2024-03-08T07:04:25;842.90;;;761.60;;
1010;SDS011;494;48.744;10.106;2024-03-08T07:06:56;837.42;;;755.03;;
1010;SDS011;494;48.744;10.106;2024-03-08T07:09:24;875.78;;;789.05;;
1010;SDS011;494;48.744;10.106;2024-03-08T07:11:55;779.92;;;704.83;;
1010;SDS011;494;48.744;10.106;2024-03-08T07:14:24;821.38;;;744.70;;
1010;SDS011;494;48.744;10.106;2024-03-08T07:16:54;805.00;;;729.15;;
1010;SDS011;494;48.744;10.106;2024-03-08T07:19:25;848.65;;;764.75;;
1010;SDS011;494;48.744;10.106;2024-03-08T07:21:54;868.25;;;783.63;;
1010;SDS011;494;48.744;10.106;2024-03-08T07:24:23;903.33;;;813.80;;
1010;SDS011;494;48.744;10.106;2024-03-08T07:27:08;816.65;;;739.90;;
1010;SDS011;494;48.744;10.106;2024-03-08T07:29:36;842.33;;;760.88;;
1010;SDS011;494;48.744;10.106;2024-03-08T07:32:05;872.47;;;784.47;;
1010;SDS011;494;48.744;10.106;2024-03-08T07:34:47;820.25;;;740.47;;
1010;SDS011;494;48.744;10.106;2024-03-08T07:37:17;844.53;;;760.85;;
1010;SDS011;494;48.744;10.106;2024-03-08T07:39:47;850.88;;;770.20;;
1010;SDS011;494;48.744;10.106;2024-03-08T07:42:17;849.45;;;768.90;;
1010;SDS011;494;48.744;10.106;2024-03-08T07:44:45;884.90;;;795.08;;
1010;SDS011;494;48.744;10.106;2024-03-08T07:47:15;889.28;;;804.38;;
1010;SDS011;494;48.744;10.106;2024-03-08T07:49:53;807.22;;;732.75;;
1010;SDS011;494;48.744;10.106;2024-03-08T07:52:30;892.88;;;804.13;;
1010;SDS011;494;48.744;10.106;2024-03-08T07:55:00;813.63;;;737.00;;
1010;SDS011;494;48.744;10.106;2024-03-08T07:57:31;790.92;;;716.17;;
1010;SDS011;494;48.744;10.106;2024-03-08T08:00:00;811.83;;;737.05;;
1010;SDS011;494;48.744;10.106;2024-03-08T08:02:33;796.13;;;723.37;;
1010;SDS011;494;48.744;10.106;2024-03-08T08:05:06;849.97;;;770.72;;
1010;SDS011;494;48.744;10.106;2024-03-08T08:07:36;829.78;;;751.83;;
1010;SDS011;494;48.744;10.106;2024-03-08T08:10:05;835.10;;;756.47;;
1010;SDS011;494;48.744;10.106;2024-03-08T08:12:44;851.83;;;772.10;;
1010;SDS011;494;48.744;10.106;2024-03-08T08:15:14;843.90;;;764.20;;
1010;SDS011;494;48.744;10.106;2024-03-08T08:17:42;808.67;;;733.33;;
1010;SDS011;494;48.744;10.106;2024-03-08T08:20:12;880.77;;;796.77;;
1010;SDS011;494;48.744;10.106;2024-03-08T08:22:41;892.42;;;805.55;;
1010;SDS011;494;48.744;10.106;2024-03-08T08:25:11;845.80;;;767.83;;
1010;SDS011;494;48.744;10.106;2024-03-08T08:27:40;860.20;;;776.23;;
1010;SDS011;494;48.744;10.106;2024-03-08T08:30:11;856.50;;;776.13;;
1010;SDS011;494;48.744;10.106;2024-03-08T08:32:40;914.75;;;821.95;;
1010;SDS011;494;48.744;10.106;2024-03-08T08:35:09;915.63;;;827.75;;
1010;SDS011;494;48.744;10.106;2024-03-08T08:37:39;941.33;;;847.28;;
1010;SDS011;494;48.744;10.106;2024-03-08T08:40:08;883.47;;;799.67;;
1010;SDS011;494;48.744;10.106;2024-03-08T08:42:41;906.27;;;820.70;;
1010;SDS011;494;48.744;10.106;2024-03-08T08:45:16;963.28;;;867.25;;
1010;SDS011;494;48.744;10.106;2024-03-08T08:47:51;925.10;;;835.92;;
1010;SDS011;494;48.744;10.106;2024-03-08T08:50:21;881.78;;;796.55;;
1010;SDS011;494;48.744;10.106;2024-03-08T08:52:51;955.93;;;857.80;;
1010;SDS011;494;48.744;10.106;2024-03-08T08:55:20;919.55;;;833.13;;
1010;SDS011;494;48.744;10.106;2024-03-08T08:57:52;894.13;;;808.40;;
1010;SDS011;494;48.744;10.106;2024-03-08T09:00:24;934.80;;;844.07;;
1010;SDS011;494;48.744;10.106;2024-03-08T09:02:54;893.50;;;808.27;;
1010;SDS011;494;48.744;10.106;2024-03-08T09:05:25;940.10;;;845.43;;
1010;SDS011;494;48.744;10.106;2024-03-08T09:07:54;906.57;;;814.97;;
1010;SDS011;494;48.744;10.106;2024-03-08T09:10:23;891.13;;;803.10;;
1010;SDS011;494;48.744;10.106;2024-03-08T09:12:54;867.40;;;787.27;;
1010;SDS011;494;48.744;10.106;2024-03-08T09:15:24;937.37;;;844.03;;
1010;SDS011;494;48.744;10.106;2024-03-08T09:17:55;914.43;;;825.30;;
1010;SDS011;494;48.744;10.106;2024-03-08T09:20:26;875.43;;;793.90;;
1010;SDS011;494;48.744;10.106;2024-03-08T09:22:55;880.30;;;794.10;;
1010;SDS011;494;48.744;10.106;2024-03-08T09:25:24;935.33;;;841.43;;
1010;SDS011;494;48.744;10.106;2024-03-08T09:27:54;923.77;;;835.40;;
1010;SDS011;494;48.744;10.106;2024-03-08T09:30:25;982.40;;;887.83;;
1010;SDS011;494;48.744;10.106;2024-03-08T09:32:53;986.97;;;890.77;;
1010;SDS011;494;48.744;10.106;2024-03-08T09:35:25;921.27;;;833.93;;
1010;SDS011;494;48.744;10.106;2024-03-08T09:37:53;915.23;;;824.97;;
1010;SDS011;494;48.744;10.106;2024-03-08T09:40:22;898.57;;;811.13;;
1010;SDS011;494;48.744;10.106;2024-03-08T09:42:52;945.13;;;855.10;;
1010;SDS011;494;48.744;10.106;2024-03-08T09:45:22;968.83;;;872.77;;
1010;SDS011;494;48.744;10.106;2024-03-08T09:47:53;959.90;;;866.23;;
1010;SDS011;494;48.744;10.106;2024-03-08T09:50:24;906.50;;;815.60;;
1010;SDS011;494;48.744;10.106;2024-03-08T09:52:54;882.60;;;798.27;;
1010;SDS011;494;48.744;10.106;2024-03-08T09:55:25;962.90;;;866.97;;
1010;SDS011;494;48.744;10.106;2024-03-08T09:58:00;984.70;;;883.07;;
1010;SDS011;494;48.744;10.106;2024-03-08T10:01:04;816.87;;;731.20;;
1010;SDS011;494;48.744;10.106;2024-03-08T10:03:33;855.07;;;774.20;;
1010;SDS011;494;48.744;10.106;2024-03-08T10:06:03;921.03;;;829.63;;
1010;SDS011;494;48.744;10.106;2024-03-08T10:08:32;931.87;;;839.03;;
1010;SDS011;494;48.744;10.106;2024-03-08T10:11:01;883.73;;;794.03;;
1010;SDS011;494;48.744;10.106;2024-03-08T10:13:30;873.13;;;785.67;;
1010;SDS011;494;48.744;10.106;2024-03-08T10:16:00;948.20;;;852.70;;
1010;SDS011;494;48.744;10.106;2024-03-08T10:18:30;913.13;;;821.53;;
1010;SDS011;494;48.744;10.106;2024-03-08T10:21:05;895.47;;;805.33;;
1010;SDS011;494;48.744;10.106;2024-03-08T10:23:37;960.33;;;862.80;;
1010;SDS011;494;48.744;10.106;2024-03-08T10:26:09;942.67;;;847.27;;
1010;SDS011;494;48.744;10.106;2024-03-08T10:28:41;955.97;;;860.30;;
1010;SDS011;494;48.744;10.106;2024-03-08T10:31:12;854.10;;;766.10;;
1010;SDS011;494;48.744;10.106;2024-03-08T10:33:46;923.13;;;828.40;;
1010;SDS011;494;48.744;10.106;2024-03-08T10:36:15;942.67;;;847.73;;
1010;SDS011;494;48.744;10.106;2024-03-08T10:38:46;924.47;;;830.00;;
1010;SDS011;494;48.744;10.106;2024-03-08T10:41:15;942.70;;;845.23;;
1010;SDS011;494;48.744;10.106;2024-03-08T10:43:50;901.33;;;810.70;;
1010;SDS011;494;48.744;10.106;2024-03-08T10:46:42;884.00;;;792.97;;
1010;SDS011;494;48.744;10.106;2024-03-08T10:49:30;881.40;;;791.83;;
1010;SDS011;494;48.744;10.106;2024-03-08T10:52:03;922.53;;;826.10;;
1010;SDS011;494;48.744;10.106;2024-03-08T10:54:36;789.97;;;701.33;;
1010;SDS011;494;48.744;10.106;2024-03-08T10:57:10;747.70;;;634.50;;
1010;SDS011;494;48.744;10.106;2024-03-08T10:59:42;839.80;;;753.80;;
1010;SDS011;494;48.744;10.106;2024-03-08T11:02:11;710.40;;;632.30;;
1010;SDS011;494;48.744;10.106;2024-03-08T11:04:46;861.30;;;769.97;;
1010;SDS011;494;48.744;10.106;2024-03-08T11:07:16;769.50;;;688.83;;
1010;SDS011;494;48.744;10.106;2024-03-08T11:09:47;839.30;;;750.00;;
1010;SDS011;494;48.744;10.106;2024-03-08T11:12:19;857.20;;;764.33;;
1010;SDS011;494;48.744;10.106;2024-03-08T11:14:52;843.83;;;753.07;;
1010;SDS011;494;48.744;10.106;2024-03-08T11:17:22;646.03;;;564.73;;
1010;SDS011;494;48.744;10.106;2024-03-08T11:20:09;777.60;;;658.97;;
1010;SDS011;494;48.744;10.106;2024-03-08T11:22:48;683.50;;;607.10;;
1010;SDS011;494;48.744;10.106;2024-03-08T11:25:32;589.37;;;525.63;;
1010;SDS011;494;48.744;10.106;2024-03-08T11:28:10;576.60;;;509.33;;
1010;SDS011;494;48.744;10.106;2024-03-08T11:31:21;608.83;;;542.50;;
1010;SDS011;494;48.744;10.106;2024-03-08T11:33:53;639.23;;;570.33;;
1010;SDS011;494;48.744;10.106;2024-03-08T11:36:25;421.03;;;375.17;;
1010;SDS011;494;48.744;10.106;2024-03-08T11:38:53;387.33;;;345.47;;
1010;SDS011;494;48.744;10.106;2024-03-08T11:41:25;511.00;;;455.87;;
1010;SDS011;494;48.744;10.106;2024-03-08T11:44:01;556.43;;;500.40;;
1010;SDS011;494;48.744;10.106;2024-03-08T11:46:38;588.20;;;527.60;;
1010;SDS011;494;48.744;10.106;2024-03-08T11:49:12;518.00;;;463.03;;
1010;SDS011;494;48.744;10.106;2024-03-08T11:51:42;556.10;;;499.53;;
1010;SDS011;494;48.744;10.106;2024-03-08T11:54:12;474.47;;;426.23;;
1010;SDS011;494;48.744;10.106;2024-03-08T11:56:41;470.00;;;419.13;;
1010;SDS011;494;48.744;10.106;2024-03-08T11:59:11;582.80;;;523.17;;
1010;SDS011;494;48.744;10.106;2024-03-08T12:01:41;507.50;;;455.83;;
1010;SDS011;494;48.744;10.106;2024-03-08T12:04:30;400.53;;;357.97;;
1010;SDS011;494;48.744;10.106;2024-03-08T12:07:01;545.57;;;489.77;;
1010;SDS011;494;48.744;10.106;2024-03-08T12:09:39;433.00;;;386.63;;
1010;SDS011;494;48.744;10.106;2024-03-08T12:12:13;377.20;;;338.83;;
1010;SDS011;494;48.744;10.106;2024-03-08T12:14:46;401.67;;;363.73;;
1010;SDS011;494;48.744;10.106;2024-03-08T12:17:15;373.10;;;337.07;;
1010;SDS011;494;48.744;10.106;2024-03-08T12:19:46;461.23;;;416.77;;
1010;SDS011;494;48.744;10.106;2024-03-08T12:22:17;419.67;;;380.70;;
1010;SDS011;494;48.744;10.106;2024-03-08T12:25:02;518.97;;;471.53;;
1010;SDS011;494;48.744;10.106;2024-03-08T12:27:37;444.67;;;404.30;;
1010;SDS011;494;48.744;10.106;2024-03-08T12:30:19;475.30;;;431.70;;
1010;SDS011;494;48.744;10.106;2024-03-08T12:32:54;428.30;;;389.23;;
1010;SDS011;494;48.744;10.106;2024-03-08T12:35:25;371.73;;;336.70;;
1010;SDS011;494;48.744;10.106;2024-03-08T12:38:01;410.67;;;373.30;;
1010;SDS011;494;48.744;10.106;2024-03-08T12:40:31;483.43;;;440.13;;
1010;SDS011;494;48.744;10.106;2024-03-08T12:43:01;312.50;;;282.07;;
1010;SDS011;494;48.744;10.106;2024-03-08T12:45:30;364.97;;;330.80;;
1010;SDS011;494;48.744;10.106;2024-03-08T12:47:59;437.50;;;399.00;;
1010;SDS011;494;48.744;10.106;2024-03-08T12:50:30;378.33;;;342.47;;
1010;SDS011;494;48.744;10.106;2024-03-08T12:52:59;379.53;;;343.87;;
1010;SDS011;494;48.744;10.106;2024-03-08T12:55:35;484.30;;;441.93;;
1010;SDS011;494;48.744;10.106;2024-03-08T12:58:05;359.13;;;325.43;;
1010;SDS011;494;48.744;10.106;2024-03-08T13:00:35;467.27;;;425.93;;
1010;SDS011;494;48.744;10.106;2024-03-08T13:03:10;437.10;;;397.23;;
1010;SDS011;494;48.744;10.106;2024-03-08T13:05:39;402.37;;;366.77;;
1010;SDS011;494;48.744;10.106;2024-03-08T13:08:10;409.67;;;372.43;;
1010;SDS011;494;48.744;10.106;2024-03-08T13:10:41;509.00;;;466.13;;
1010;SDS011;494;48.744;10.106;2024-03-08T13:13:11;455.30;;;416.00;;
1010;SDS011;494;48.744;10.106;2024-03-08T13:15:44;463.63;;;423.53;;
1010;SDS011;494;48.744;10.106;2024-03-08T13:18:15;461.67;;;421.60;;
1010;SDS011;494;48.744;10.106;2024-03-08T13:20:45;483.90;;;442.83;;
1010;SDS011;494;48.744;10.106;2024-03-08T13:23:28;379.80;;;344.87;;
1010;SDS011;494;48.744;10.106;2024-03-08T13:25:58;504.03;;;461.13;;
1010;SDS011;494;48.744;10.106;2024-03-08T13:28:37;417.10;;;380.23;;
1010;SDS011;494;48.744;10.106;2024-03-08T13:31:10;452.57;;;413.57;;
1010;SDS011;494;48.744;10.106;2024-03-08T13:33:41;396.43;;;360.83;;
1010;SDS011;494;48.744;10.106;2024-03-08T13:36:13;400.17;;;365.30;;
1010;SDS011;494;48.744;10.106;2024-03-08T13:41:44;426.83;;;388.33;;
1010;SDS011;494;48.744;10.106;2024-03-08T13:44:13;548.77;;;503.73;;
1010;SDS011;494;48.744;10.106;2024-03-08T13:46:43;511.27;;;468.47;;
1010;SDS011;494;48.744;10.106;2024-03-08T13:49:19;494.77;;;453.47;;
1010;SDS011;494;48.744;10.106;2024-03-08T13:51:48;507.63;;;464.80;;
1010;SDS011;494;48.744;10.106;2024-03-08T13:54:17;513.57;;;470.20;;
1010;SDS011;494;48.744;10.106;2024-03-08T13:56:47;487.60;;;446.00;;
1010;SDS011;494;48.744;10.106;2024-03-08T13:59:16;507.53;;;465.37;;
1010;SDS011;494;48.744;10.106;2024-03-08T14:01:45;526.13;;;482.20;;
1010;SDS011;494;48.744;10.106;2024-03-08T14:04:15;467.80;;;427.60;;
1010;SDS011;494;48.744;10.106;2024-03-08T14:06:44;512.70;;;471.67;;
1010;SDS011;494;48.744;10.106;2024-03-08T14:09:13;515.00;;;473.47;;
1010;SDS011;494;48.744;10.106;2024-03-08T14:11:44;503.13;;;462.40;;
1010;SDS011;494;48.744;10.106;2024-03-08T14:14:25;513.87;;;472.83;;
1010;SDS011;494;48.744;10.106;2024-03-08T14:16:54;521.47;;;479.73;;
1010;SDS011;494;48.744;10.106;2024-03-08T14:19:27;508.53;;;467.93;;
1010;SDS011;494;48.744;10.106;2024-03-08T14:21:57;432.27;;;396.10;;
1010;SDS011;494;48.744;10.106;2024-03-08T14:24:31;519.20;;;477.83;;
1010;SDS011;494;48.744;10.106;2024-03-08T14:27:03;510.00;;;468.90;;
1010;SDS011;494;48.744;10.106;2024-03-08T14:29:35;486.87;;;447.60;;
1010;SDS011;494;48.744;10.106;2024-03-08T14:32:05;544.23;;;501.67;;
1010;SDS011;494;48.744;10.106;2024-03-08T14:34:38;515.27;;;474.27;;
1010;SDS011;494;48.744;10.106;2024-03-08T14:37:08;528.80;;;486.97;;
1010;SDS011;494;48.744;10.106;2024-03-08T14:39:38;525.37;;;483.97;;
1010;SDS011;494;48.744;10.106;2024-03-08T14:42:08;525.53;;;484.20;;
1010;SDS011;494;48.744;10.106;2024-03-08T14:44:39;509.60;;;469.37;;
1010;SDS011;494;48.744;10.106;2024-03-08T14:47:10;543.67;;;501.03;;
1010;SDS011;494;48.744;10.106;2024-03-08T14:49:40;546.03;;;503.03;;
1010;SDS011;494;48.744;10.106;2024-03-08T14:52:10;526.90;;;485.10;;